Nathrop, Colorado
Current Conditions -  °F | °C
As of 12:35 PM on Friday 31 Oct 2014 (Local Time) from KAEJ Reporting Station
Clear Clear  
Wind Chill: 51°   Ceiling: Unl
Heat Index: 51°   Visibility: 10mi
Dew Point: 21°   Wind: 0mph
Humidity: 31%   Direction: NA
Pressure: 30.33"   Gusts: NA
Location:  38.75°N, 106.08°W
Report Text: KAEJ 311835Z AUTO 00000KT 10SM CLR 10/M06 A3033 RMK AO2 T01041060
Loading
Personal Weather Stations






























Interactive Weather Map
Tropical Storm Tracking
New forecast layout! Learn more

10-Day Weather Forecast

Advertisements
Track Severe Weather on mobile